Zaradi letalske nesreče je bilo portoroško letališče danes popoldan zaprto

Oceni ta prispevek
(2 glasov)
03 Jan 20
Napisal Prebrano 1251 krat
Objavljeno v Novice

Danes okoli 13.ure in 30 minut po lokalnem času, je prišlo na Letališču Portorož do manjše letalske nesreče.

Kakor smo uspeli neuradno izvedeli, je letalo tipa Moonney M22 Mustang pristalo na vzletno pristajalno stezo v smeri 33 z neizvlečenim podvozjem. Letalo je pri pristanku podrsalo po vzletno pristajalni stezi portoroškega letališča, ter se ustavilo v okolici cone dotika za nasprotno stezo 15. Po naših informacijah ni prišlo do telesnih poškodb potnikov na letalu.

Slika spletne kamere ARSA
Slika spletne kamere ARSA

V času nesreče je na letališču prevladovalo stabilno vreme, brez vetra ter z nekoliko zmanjšano vidljivostjo.

METAR COR LJPZ 031200Z VRB01KT 8000 NSC 10/07 Q1027=

METAR LJPZ 031230Z 28003KT 8000 NSC 10/07 Q1026=

METAR LJPZ 031300Z 33003KT 290V010 8000 NSC 11/08 Q1026=

Letalo tipa Mooney M22 Mustang, švicarskih registrskih oznak HB-DVY, je na portoroško letališče priletelo iz Švice. Gre za manjše in starejše enomotorno letalo, ki se večinoma uporablja v zasebne namene in se z njim lahko pelje do 5 oseb. Letal točno tega tipa je bilo po informacijah s spleta narejenih samo 36, prvi polet s tem letalom pa je bil izveden davnega leta 1964, proizvodnja pa je tekla med leti 1965 in 1970. Letalo je zelo priljubljeno med švicarskimi piloti, predvsem zato ker je hitro, ima uvlačljivo podvozje in je zelo ekonomično ter opremljeno s presurizacijskim sistemom, ki omogoča let letala na višini kar 24 tisoč čevljev (7300 metrov). Potovalna hitrost pri 65 odstotni moči motorja je 186 vozlov (344 km/h), maksimalno hitrost pa lahko doseže kar 222 vozlov (412 km/h). Junija 1967 je eno izmed testnih letal opravilo več kot 13 urni neprekinjen polet med New Yorkom in Parizom.

Letališče Portorož je bilo zaradi odstranjevanja posledic nesreče, več ur zaprto.

Oddajte komentar

Prepričajte se, da vnesete vse obvezne podatke, označene z zvezdico (*). HTML koda ni dovoljena.


Koledar objav

« Julij 2020 »
Pon Tor Sre Čet Pet Sob Ned
    1 2 3 4 5
6 7 8 9 10 11 12
13 14 15 16 17 18 19
20 21 22 23 24 25 26
27 28 29 30 31